createdAt,value
2023-05-21T00:00:44.542Z,67.45
2023-05-21T00:02:46.673Z,67.52
2023-05-21T00:04:48.445Z,67.52
2023-05-21T00:06:50.114Z,67.62
2023-05-21T00:08:51.779Z,67.76
2023-05-21T00:10:53.371Z,68.01
2023-05-21T00:12:54.913Z,67.67
2023-05-21T00:14:56.529Z,67.88
2023-05-21T00:16:59.786Z,67.13
2023-05-21T00:19:01.748Z,67.93
2023-05-21T00:21:03.715Z,67.85
2023-05-21T00:23:05.519Z,68.14
2023-05-21T00:25:07.709Z,67.89
2023-05-21T00:27:10.348Z,67.76
2023-05-21T00:29:12.222Z,68.28
2023-05-21T00:31:13.963Z,67.92
2023-05-21T00:33:17.001Z,68.28
2023-05-21T00:35:18.624Z,67.98
2023-05-21T00:37:20.439Z,68.43
2023-05-21T00:39:21.988Z,67.79
2023-05-21T00:41:24.017Z,68.16
2023-05-21T00:43:25.682Z,68.27
2023-05-21T00:45:27.382Z,68.38
2023-05-21T00:47:29.081Z,67.91
2023-05-21T00:49:32.871Z,67.97
2023-05-21T00:51:34.495Z,67.98
2023-05-21T00:53:36.889Z,68.36
2023-05-21T00:55:38.806Z,67.81
2023-05-21T00:57:41.478Z,68.24
2023-05-21T00:59:44.278Z,68.33
2023-05-21T01:01:46.269Z,68.49
2023-05-21T01:03:48.013Z,68.56
2023-05-21T01:05:53.968Z,68.39
2023-05-21T01:07:57.484Z,68.89
2023-05-21T01:09:59.436Z,68.36
2023-05-21T01:12:01.934Z,68.80
2023-05-21T01:14:07.900Z,68.83
2023-05-21T01:16:10.533Z,68.29
2023-05-21T01:18:13.341Z,68.48
2023-05-21T01:20:16.231Z,68.90
2023-05-21T01:22:22.068Z,67.94
2023-05-21T01:24:25.372Z,68.63
2023-05-21T01:26:26.967Z,69.52
2023-05-21T01:28:28.544Z,68.81
2023-05-21T01:30:30.475Z,69.13
2023-05-21T01:32:37.930Z,68.62
2023-05-21T01:34:51.106Z,68.99
2023-05-21T01:37:00.050Z,69.01
2023-05-21T01:39:08.204Z,68.08
2023-05-21T01:41:14.164Z,67.96
2023-05-21T01:43:17.390Z,69.28
2023-05-21T01:45:21.047Z,69.59
2023-05-21T01:47:26.132Z,69.51
2023-05-21T01:49:30.422Z,69.89
2023-05-21T01:51:32.631Z,69.78
2023-05-21T01:53:35.053Z,69.51
2023-05-21T01:55:37.015Z,69.40
2023-05-21T01:57:40.176Z,69.70
2023-05-21T01:59:41.853Z,69.31
2023-05-21T02:01:43.527Z,69.49
2023-05-21T02:03:45.239Z,69.48
2023-05-21T02:05:47.228Z,69.67
2023-05-21T02:07:50.380Z,69.70
2023-05-21T02:09:52.285Z,68.89
2023-05-21T02:11:54.139Z,68.93
2023-05-21T02:13:57.519Z,69.08
2023-05-21T02:15:59.259Z,69.20
2023-05-21T02:18:00.922Z,69.23
2023-05-21T02:20:03.533Z,68.82
2023-05-21T02:22:05.373Z,69.40
2023-05-21T02:24:07.151Z,69.64
2023-05-21T02:26:08.965Z,69.55
2023-05-21T02:28:10.627Z,69.70
2023-05-21T02:30:15.917Z,69.08
2023-05-21T02:32:17.500Z,69.99
2023-05-21T02:34:19.229Z,69.90
2023-05-21T02:36:20.836Z,69.83
2023-05-21T02:38:22.648Z,69.57
2023-05-21T02:40:24.511Z,69.76
2023-05-21T02:42:26.472Z,70.58
2023-05-21T02:44:28.305Z,69.93
2023-05-21T02:46:31.404Z,70.11
2023-05-21T02:48:33.229Z,70.50
2023-05-21T02:50:34.916Z,69.81
2023-05-21T02:52:36.605Z,70.52
2023-05-21T02:54:38.294Z,70.89
2023-05-21T02:56:40.079Z,70.26
2023-05-21T02:58:41.682Z,70.75
2023-05-21T03:00:43.334Z,70.30
2023-05-21T03:02:46.932Z,70.41
2023-05-21T03:04:48.618Z,71.00
2023-05-21T03:06:50.360Z,70.08
2023-05-21T03:08:52.042Z,70.49
2023-05-21T03:10:53.665Z,71.01
2023-05-21T03:12:55.498Z,70.82
2023-05-21T03:14:57.093Z,70.60
2023-05-21T03:16:59.029Z,70.80
2023-05-21T03:19:02.234Z,70.64
2023-05-21T03:21:04.558Z,70.81
2023-05-21T03:23:06.318Z,70.10
2023-05-21T03:25:08.899Z,70.61
2023-05-21T03:27:10.584Z,70.70
2023-05-21T03:29:13.630Z,69.87
2023-05-21T03:31:15.623Z,70.33
2023-05-21T03:33:17.363Z,70.37
2023-05-21T03:35:20.520Z,70.42
2023-05-21T03:37:23.679Z,70.65
2023-05-21T03:39:25.573Z,70.49
2023-05-21T03:41:27.429Z,70.34
2023-05-21T03:43:29.002Z,70.58
2023-05-21T03:45:30.770Z,71.08
2023-05-21T03:47:32.477Z,70.99
2023-05-21T03:49:34.251Z,71.14
2023-05-21T03:51:37.258Z,71.24
2023-05-21T03:53:38.866Z,71.83
2023-05-21T03:55:40.587Z,72.20
2023-05-21T03:57:42.919Z,71.93
2023-05-21T03:59:44.536Z,71.86
2023-05-21T04:01:46.256Z,71.75
2023-05-21T04:03:48.181Z,71.89
2023-05-21T04:05:50.057Z,72.21
2023-05-21T04:07:53.198Z,71.96
2023-05-21T04:09:55.093Z,72.06
2023-05-21T04:11:57.243Z,72.68
2023-05-21T04:13:58.876Z,72.16
2023-05-21T04:16:00.521Z,72.06
2023-05-21T04:18:02.352Z,72.93
2023-05-21T04:20:04.659Z,72.60
2023-05-21T04:22:06.619Z,72.50
2023-05-21T04:24:09.642Z,72.73
2023-05-21T04:26:11.322Z,72.31
2023-05-21T04:28:12.927Z,72.21
2023-05-21T04:30:14.684Z,72.46
2023-05-21T04:32:16.259Z,72.04
2023-05-21T04:34:18.269Z,71.90
2023-05-21T04:36:19.884Z,71.67
2023-05-21T04:38:21.703Z,71.70
2023-05-21T04:40:25.130Z,71.50
2023-05-21T04:42:26.922Z,71.55
2023-05-21T04:44:28.687Z,72.14
2023-05-21T04:46:30.884Z,71.20
2023-05-21T04:48:32.660Z,71.62
2023-05-21T04:50:34.632Z,71.28
2023-05-21T04:52:36.353Z,71.15
2023-05-21T04:54:38.018Z,70.59
2023-05-21T04:56:49.028Z,68.93
2023-05-21T04:58:51.253Z,70.80
2023-05-21T05:00:52.862Z,70.33
2023-05-21T05:02:54.618Z,69.96
2023-05-21T05:04:56.320Z,69.73
2023-05-21T05:06:57.999Z,69.73
2023-05-21T05:08:59.596Z,69.06
2023-05-21T05:11:01.270Z,68.93
2023-05-21T05:13:04.211Z,68.75
2023-05-21T05:15:07.078Z,68.26
2023-05-21T05:17:08.680Z,67.96
2023-05-21T05:19:10.475Z,67.94
2023-05-21T05:21:12.137Z,68.26
2023-05-21T05:23:14.275Z,68.09
2023-05-21T05:25:15.896Z,67.89
2023-05-21T05:27:17.509Z,67.77
2023-05-21T05:29:21.141Z,67.51
2023-05-21T05:31:23.099Z,67.25
2023-05-21T05:33:25.042Z,67.27
2023-05-21T05:35:26.850Z,67.52
2023-05-21T05:37:28.583Z,67.09
2023-05-21T05:39:30.268Z,67.18
2023-05-21T05:41:32.851Z,67.21
2023-05-21T05:43:34.778Z,67.22
2023-05-21T05:45:38.292Z,67.36
2023-05-21T05:47:40.465Z,67.87
2023-05-21T05:49:42.133Z,67.48
2023-05-21T05:51:43.950Z,67.17
2023-05-21T05:53:45.563Z,67.55
2023-05-21T05:55:47.687Z,66.70
2023-05-21T05:57:50.486Z,65.85
2023-05-21T05:59:52.410Z,65.88
2023-05-21T06:01:55.459Z,65.50
2023-05-21T06:03:57.037Z,65.87
2023-05-21T06:05:58.988Z,65.28
2023-05-21T06:08:00.599Z,65.38
2023-05-21T06:10:02.723Z,64.97
2023-05-21T06:12:05.338Z,64.56
2023-05-21T06:14:07.503Z,64.50
2023-05-21T06:16:09.806Z,64.42
2023-05-21T06:18:12.980Z,63.45
2023-05-21T06:20:16.472Z,63.16
2023-05-21T06:22:18.149Z,63.33
2023-05-21T06:24:19.806Z,63.31
2023-05-21T06:26:21.815Z,63.20
2023-05-21T06:28:23.767Z,62.86
2023-05-21T06:30:25.648Z,63.08
2023-05-21T06:32:27.547Z,63.24
2023-05-21T06:34:30.795Z,63.08
2023-05-21T06:36:32.618Z,62.48
2023-05-21T06:38:34.499Z,61.84
2023-05-21T06:40:36.346Z,62.22
2023-05-21T06:42:38.341Z,61.78
2023-05-21T06:44:40.220Z,62.13
2023-05-21T06:46:42.327Z,61.40
2023-05-21T06:48:45.051Z,61.52
2023-05-21T06:50:48.282Z,60.63
2023-05-21T06:52:49.853Z,60.89
2023-05-21T06:54:51.494Z,59.23
2023-05-21T06:56:53.136Z,59.53
2023-05-21T06:58:54.788Z,59.64
2023-05-21T07:00:56.493Z,58.86
2023-05-21T07:02:58.939Z,58.48
2023-05-21T07:05:00.732Z,58.43
2023-05-21T07:07:04.153Z,59.01
2023-05-21T07:09:06.082Z,58.93
2023-05-21T07:11:07.768Z,57.18
2023-05-21T07:13:09.826Z,57.23
2023-05-21T07:15:11.784Z,57.25
2023-05-21T07:17:13.688Z,56.52
2023-05-21T07:19:15.793Z,56.21
2023-05-21T07:21:17.629Z,55.62
2023-05-21T07:23:20.947Z,56.06
2023-05-21T07:25:22.798Z,55.50
2023-05-21T07:27:26.259Z,54.67
2023-05-21T07:29:28.274Z,53.90
2023-05-21T07:31:30.153Z,54.04
2023-05-21T07:33:31.779Z,53.47
2023-05-21T07:35:33.976Z,53.41
2023-05-21T07:37:35.770Z,53.99
2023-05-21T07:39:38.838Z,53.05
2023-05-21T07:41:40.635Z,52.35
2023-05-21T07:43:42.396Z,52.52
2023-05-21T07:45:44.131Z,51.79
2023-05-21T07:47:47.148Z,51.68
2023-05-21T07:49:49.180Z,51.49
2023-05-21T07:51:51.073Z,51.48
2023-05-21T07:53:55.038Z,51.04
2023-05-21T07:55:58.438Z,51.31
2023-05-21T07:58:00.336Z,51.22
2023-05-21T08:00:02.087Z,51.23
2023-05-21T08:02:03.904Z,50.53
2023-05-21T08:04:06.457Z,51.12
2023-05-21T08:06:10.140Z,50.88
2023-05-21T08:08:11.726Z,50.55
2023-05-21T08:10:13.431Z,50.85
2023-05-21T08:12:16.636Z,50.58
2023-05-21T08:14:18.999Z,50.57
2023-05-21T08:16:21.001Z,50.86
2023-05-21T08:18:26.483Z,49.91
2023-05-21T08:20:28.633Z,49.62
2023-05-21T08:22:30.274Z,50.87
2023-05-21T08:24:32.213Z,49.91
2023-05-21T08:26:34.046Z,50.64
2023-05-21T08:28:38.219Z,50.28
2023-05-21T08:30:40.156Z,50.65
2023-05-21T08:32:42.384Z,49.82
2023-05-21T08:34:44.041Z,49.36
2023-05-21T08:36:46.505Z,49.54
2023-05-21T08:38:48.929Z,49.61
2023-05-21T08:40:51.599Z,50.10
2023-05-21T08:42:53.950Z,49.36
2023-05-21T08:45:00.530Z,50.14
2023-05-21T08:47:05.796Z,49.18
2023-05-21T08:49:12.266Z,49.21
2023-05-21T08:51:14.378Z,48.63
2023-05-21T08:53:27.257Z,48.77
2023-05-21T08:55:31.611Z,48.43
2023-05-21T08:57:33.686Z,47.96
2023-05-21T08:59:35.757Z,49.06
2023-05-21T09:01:39.996Z,47.69
2023-05-21T09:03:43.618Z,48.20
2023-05-21T09:05:45.614Z,47.67
2023-05-21T09:07:55.695Z,47.46
2023-05-21T09:09:58.790Z,47.72
2023-05-21T09:12:00.464Z,46.36
2023-05-21T09:14:02.713Z,46.36
2023-05-21T09:16:06.669Z,45.14
2023-05-21T09:18:09.879Z,45.81
2023-05-21T09:20:13.396Z,45.83
2023-05-21T09:22:15.572Z,45.16
2023-05-21T09:24:21.533Z,44.49
2023-05-21T09:26:23.883Z,44.97
2023-05-21T09:28:25.762Z,44.96
2023-05-21T09:30:30.194Z,44.54
2023-05-21T09:32:33.511Z,44.80
2023-05-21T09:34:37.834Z,45.05
2023-05-21T09:36:39.517Z,44.94
2023-05-21T09:38:41.672Z,45.23
2023-05-21T09:40:46.531Z,44.95
2023-05-21T09:42:49.831Z,43.97
2023-05-21T09:44:51.991Z,43.87
2023-05-21T09:46:57.635Z,44.53
2023-05-21T09:48:59.481Z,44.12
2023-05-21T09:51:10.334Z,45.24
2023-05-21T09:53:12.812Z,43.46
2023-05-21T09:55:16.565Z,42.90
2023-05-21T09:57:24.178Z,44.68
2023-05-21T09:59:35.902Z,44.81
2023-05-21T10:01:38.444Z,43.56
2023-05-21T10:03:40.500Z,42.88
2023-05-21T10:05:42.676Z,42.83
2023-05-21T10:07:49.980Z,43.69
2023-05-21T10:09:54.071Z,42.59
2023-05-21T10:11:57.392Z,42.93
2023-05-21T10:14:13.957Z,43.30
2023-05-21T10:16:15.641Z,42.88
2023-05-21T10:18:20.831Z,42.68
2023-05-21T10:20:22.859Z,42.19
2023-05-21T10:22:25.850Z,42.61
2023-05-21T10:24:29.487Z,42.42
2023-05-21T10:26:31.939Z,41.24
2023-05-21T10:28:34.155Z,41.42
2023-05-21T10:30:37.886Z,42.33
2023-05-21T10:32:40.885Z,41.38
2023-05-21T10:34:43.832Z,41.33
2023-05-21T10:36:48.935Z,42.20
2023-05-21T10:38:51.553Z,40.64
2023-05-21T10:40:55.820Z,41.54
2023-05-21T10:43:35.796Z,43.19
2023-05-21T10:45:53.547Z,42.74
2023-05-21T10:48:09.226Z,42.52
2023-05-21T10:50:31.404Z,42.50
2023-05-21T10:52:50.379Z,41.48
2023-05-21T10:55:07.612Z,42.06
2023-05-21T10:57:23.149Z,41.71
2023-05-21T10:59:40.072Z,42.06
2023-05-21T11:01:42.659Z,40.51
2023-05-21T11:03:45.012Z,39.93
2023-05-21T11:05:53.144Z,42.00
2023-05-21T11:07:58.463Z,41.83
2023-05-21T11:10:30.291Z,42.63
2023-05-21T11:12:36.590Z,41.35
2023-05-21T11:14:39.665Z,40.20
2023-05-21T11:16:46.012Z,41.23
2023-05-21T11:19:03.284Z,42.00
2023-05-21T11:21:06.101Z,40.84
2023-05-21T11:23:07.735Z,40.71
2023-05-21T11:25:10.096Z,40.45
2023-05-21T11:27:12.106Z,40.73
2023-05-21T11:29:15.854Z,40.38
2023-05-21T11:31:24.333Z,41.38
2023-05-21T11:33:26.450Z,40.46
2023-05-21T11:35:28.094Z,40.61
2023-05-21T11:37:34.267Z,39.70
2023-05-21T11:39:39.655Z,40.69
2023-05-21T11:41:58.122Z,41.33
2023-05-21T11:44:01.438Z,39.41
2023-05-21T11:46:06.160Z,39.67
2023-05-21T11:48:14.981Z,40.08
2023-05-21T11:50:17.612Z,38.75
2023-05-21T11:52:19.439Z,38.62
2023-05-21T11:54:21.047Z,38.96
2023-05-21T11:56:23.231Z,39.57
2023-05-21T11:58:25.185Z,39.18
2023-05-21T12:00:27.048Z,39.17
2023-05-21T12:02:31.235Z,39.92
2023-05-21T12:04:34.214Z,40.29
2023-05-21T12:06:35.753Z,39.33
2023-05-21T12:08:37.401Z,39.20
2023-05-21T12:10:39.063Z,39.81
2023-05-21T12:12:53.861Z,39.85
2023-05-21T12:14:56.133Z,39.51
2023-05-21T12:16:58.052Z,39.80
2023-05-21T12:19:02.102Z,40.10
2023-05-21T12:21:04.971Z,39.43
2023-05-21T12:23:06.571Z,39.41
2023-05-21T12:25:09.386Z,39.36
2023-05-21T12:27:11.762Z,39.43
2023-05-21T12:29:14.291Z,39.48
2023-05-21T12:31:15.995Z,39.91
2023-05-21T12:33:18.856Z,40.48
2023-05-21T12:35:25.563Z,40.76
2023-05-21T12:37:29.135Z,39.59
2023-05-21T12:39:31.666Z,41.08
2023-05-21T12:41:33.342Z,40.80
2023-05-21T12:43:34.984Z,40.60
2023-05-21T12:45:38.687Z,40.54
2023-05-21T12:47:40.473Z,41.11
2023-05-21T12:49:44.023Z,41.68
2023-05-21T12:51:47.120Z,42.31
2023-05-21T12:53:49.184Z,42.34
2023-05-21T12:55:50.844Z,42.08
2023-05-21T12:58:01.703Z,42.26
2023-05-21T13:00:05.271Z,42.23
2023-05-21T13:02:06.990Z,41.18
2023-05-21T13:04:10.047Z,41.07
2023-05-21T13:06:13.220Z,41.18
2023-05-21T13:08:16.365Z,41.03
2023-05-21T13:10:18.519Z,40.92
2023-05-21T13:12:21.798Z,41.72
2023-05-21T13:14:23.764Z,41.57
2023-05-21T13:16:25.550Z,41.65
2023-05-21T13:18:27.309Z,41.43
2023-05-21T13:20:29.285Z,41.07
2023-05-21T13:22:31.131Z,41.14
2023-05-21T13:24:34.617Z,41.29
2023-05-21T13:26:36.539Z,42.26
2023-05-21T13:28:39.487Z,42.80
2023-05-21T13:30:41.939Z,42.55
2023-05-21T13:32:44.399Z,42.03
2023-05-21T13:34:46.463Z,41.07
2023-05-21T13:36:48.205Z,40.00
2023-05-21T13:38:49.816Z,39.80
2023-05-21T13:40:52.915Z,39.39
2023-05-21T13:42:54.609Z,39.76
2023-05-21T13:44:56.255Z,39.95
2023-05-21T13:46:58.234Z,38.89
2023-05-21T13:48:59.978Z,39.10
2023-05-21T13:51:01.933Z,40.39
2023-05-21T13:53:03.821Z,39.51
2023-05-21T13:55:07.024Z,39.31
2023-05-21T13:57:10.450Z,40.13
2023-05-21T13:59:12.016Z,39.98
2023-05-21T14:01:14.122Z,39.95
2023-05-21T14:03:16.090Z,40.17
2023-05-21T14:05:18.188Z,39.31
2023-05-21T14:07:20.164Z,40.12
2023-05-21T14:09:22.170Z,40.07
2023-05-21T14:11:23.873Z,40.63
2023-05-21T14:13:26.764Z,40.29
2023-05-21T14:15:28.461Z,40.20
2023-05-21T14:17:30.129Z,40.09
2023-05-21T14:19:32.272Z,40.36
2023-05-21T14:21:34.123Z,40.22
2023-05-21T14:23:35.767Z,40.10
2023-05-21T14:25:38.045Z,40.58
2023-05-21T14:27:39.921Z,40.80
2023-05-21T14:29:43.146Z,40.65
2023-05-21T14:31:44.956Z,40.82
2023-05-21T14:33:46.720Z,39.43
2023-05-21T14:35:49.135Z,40.23
2023-05-21T14:37:51.252Z,39.78
2023-05-21T14:39:53.112Z,39.50
2023-05-21T14:41:54.797Z,40.36
2023-05-21T14:43:56.432Z,39.90
2023-05-21T14:45:59.505Z,40.25
2023-05-21T14:48:01.749Z,39.52
2023-05-21T14:50:03.688Z,40.50
2023-05-21T14:52:06.027Z,40.09
2023-05-21T14:54:07.852Z,40.67
2023-05-21T14:56:09.933Z,41.63
2023-05-21T14:58:11.888Z,41.17
2023-05-21T15:00:14.517Z,41.23
2023-05-21T15:02:17.855Z,41.47
2023-05-21T15:04:19.796Z,41.74
2023-05-21T15:06:21.491Z,42.11
2023-05-21T15:08:23.189Z,41.60
2023-05-21T15:10:26.172Z,40.82
2023-05-21T15:12:28.223Z,41.25
2023-05-21T15:14:29.897Z,40.83
2023-05-21T15:16:31.854Z,39.99
2023-05-21T15:18:34.973Z,40.70
2023-05-21T15:20:36.675Z,40.40
2023-05-21T15:22:38.389Z,40.21
2023-05-21T15:24:40.257Z,40.92
2023-05-21T15:26:41.962Z,40.51
2023-05-21T15:28:43.669Z,41.15
2023-05-21T15:30:47.995Z,41.45
2023-05-21T15:32:49.702Z,41.46
2023-05-21T15:34:52.845Z,41.28
2023-05-21T15:36:54.487Z,41.06
2023-05-21T15:38:56.154Z,41.01
2023-05-21T15:40:57.790Z,41.17
2023-05-21T15:42:59.438Z,41.00
2023-05-21T15:45:01.484Z,41.59
2023-05-21T15:47:03.731Z,41.06
2023-05-21T15:49:05.451Z,40.66
2023-05-21T15:51:08.424Z,41.35
2023-05-21T15:53:10.994Z,41.03
2023-05-21T15:55:12.910Z,41.86
2023-05-21T15:57:15.038Z,41.36
2023-05-21T15:59:16.989Z,42.22
2023-05-21T16:01:18.981Z,42.06
2023-05-21T16:03:20.747Z,41.58
2023-05-21T16:05:23.870Z,41.95
2023-05-21T16:07:27.298Z,41.69
2023-05-21T16:09:31.084Z,41.71
2023-05-21T16:11:33.344Z,42.80
2023-05-21T16:13:35.035Z,42.49
2023-05-21T16:15:37.041Z,42.69
2023-05-21T16:17:39.125Z,42.69
2023-05-21T16:19:40.681Z,43.29
2023-05-21T16:21:42.499Z,43.35
2023-05-21T16:23:46.027Z,43.39
2023-05-21T16:25:47.858Z,44.05
2023-05-21T16:27:52.664Z,43.21
2023-05-21T16:29:56.489Z,43.91
2023-05-21T16:31:58.177Z,43.62
2023-05-21T16:33:59.868Z,43.97
2023-05-21T16:36:01.790Z,44.29
2023-05-21T16:38:03.589Z,44.32
2023-05-21T16:40:08.421Z,44.34
2023-05-21T16:42:10.573Z,43.55
2023-05-21T16:44:12.431Z,44.00
2023-05-21T16:46:15.338Z,44.75
2023-05-21T16:48:17.263Z,44.44
2023-05-21T16:50:21.185Z,44.76
2023-05-21T16:52:24.083Z,44.77
2023-05-21T16:54:27.058Z,45.15
2023-05-21T16:56:31.379Z,45.17
2023-05-21T16:58:33.438Z,44.82
2023-05-21T17:00:35.770Z,45.10
2023-05-21T17:02:38.468Z,45.13
2023-05-21T17:04:40.117Z,45.16
2023-05-21T17:06:41.793Z,45.19
2023-05-21T17:08:43.344Z,44.63
2023-05-21T17:10:45.124Z,44.54
2023-05-21T17:12:48.192Z,44.53
2023-05-21T17:14:49.936Z,44.82
2023-05-21T17:16:53.748Z,44.70
2023-05-21T17:18:55.743Z,44.08
2023-05-21T17:20:58.228Z,44.39
2023-05-21T17:22:59.909Z,44.35
2023-05-21T17:25:01.591Z,44.70
2023-05-21T17:27:03.798Z,44.26
2023-05-21T17:29:07.011Z,44.75
2023-05-21T17:31:09.197Z,43.97
2023-05-21T17:33:11.160Z,44.51
2023-05-21T17:35:13.120Z,44.85
2023-05-21T17:37:17.379Z,44.15
2023-05-21T17:39:19.492Z,44.21
2023-05-21T17:41:21.510Z,43.95
2023-05-21T17:43:25.569Z,45.00
2023-05-21T17:45:28.543Z,44.65
2023-05-21T17:47:30.159Z,44.56
2023-05-21T17:49:32.013Z,44.23
2023-05-21T17:51:33.936Z,44.61
2023-05-21T17:53:35.534Z,44.47
2023-05-21T17:55:37.410Z,45.21
2023-05-21T17:57:40.874Z,44.62
2023-05-21T17:59:42.723Z,44.45
2023-05-21T18:01:46.237Z,45.11
2023-05-21T18:03:47.878Z,45.02
2023-05-21T18:05:49.730Z,44.94
2023-05-21T18:07:51.394Z,45.29
2023-05-21T18:09:53.060Z,45.37
2023-05-21T18:11:54.876Z,45.40
2023-05-21T18:13:57.445Z,45.59
2023-05-21T18:15:59.191Z,45.33
2023-05-21T18:18:02.701Z,45.07
2023-05-21T18:20:05.400Z,45.55
2023-05-21T18:22:07.902Z,45.79
2023-05-21T18:24:09.601Z,45.47
2023-05-21T18:26:11.485Z,45.57
2023-05-21T18:28:13.410Z,45.67
2023-05-21T18:32:17.103Z,45.85
2023-05-21T18:34:20.727Z,46.50
2023-05-21T18:36:22.581Z,46.38
2023-05-21T18:38:24.389Z,46.49
2023-05-21T18:40:26.765Z,46.44
2023-05-21T18:42:29.567Z,45.90
2023-05-21T18:44:31.102Z,46.16
2023-05-21T18:46:33.460Z,46.55
2023-05-21T18:48:35.221Z,46.66
2023-05-21T18:50:38.713Z,46.90
2023-05-21T18:52:41.014Z,46.81
2023-05-21T18:54:42.591Z,46.55
2023-05-21T18:56:44.305Z,46.67
2023-05-21T18:58:45.982Z,46.84
2023-05-21T19:00:47.840Z,47.23
2023-05-21T19:02:49.589Z,46.97
2023-05-21T19:04:51.511Z,47.29
2023-05-21T19:06:54.808Z,47.96
2023-05-21T19:08:56.370Z,47.67
2023-05-21T19:10:58.273Z,48.21
2023-05-21T19:12:59.866Z,47.67
2023-05-21T19:15:01.965Z,48.20
2023-05-21T19:17:04.282Z,48.16
2023-05-21T19:19:07.225Z,48.42
2023-05-21T19:21:08.871Z,48.42
2023-05-21T19:23:11.895Z,48.30
2023-05-21T19:25:13.986Z,48.79
2023-05-21T19:27:15.879Z,49.01
2023-05-21T19:29:17.471Z,48.98
2023-05-21T19:31:19.626Z,49.49
2023-05-21T19:33:21.350Z,48.97
2023-05-21T19:35:23.234Z,49.38
2023-05-21T19:37:25.145Z,49.05
2023-05-21T19:39:30.685Z,49.01
2023-05-21T19:41:32.390Z,49.54
2023-05-21T19:43:35.072Z,49.13
2023-05-21T19:45:36.944Z,48.93
2023-05-21T19:47:38.652Z,48.97
2023-05-21T19:49:40.305Z,48.87
2023-05-21T19:51:42.148Z,49.47
2023-05-21T19:53:44.035Z,49.48
2023-05-21T19:55:47.434Z,49.48
2023-05-21T19:57:49.106Z,49.70
2023-05-21T19:59:50.729Z,49.68
2023-05-21T20:01:52.381Z,49.53
2023-05-21T20:03:53.957Z,49.66
2023-05-21T20:05:55.596Z,50.03
2023-05-21T20:07:58.810Z,50.25
2023-05-21T20:10:02.734Z,50.13
2023-05-21T20:12:06.885Z,50.35
2023-05-21T20:14:08.483Z,50.72
2023-05-21T20:16:10.185Z,50.82
2023-05-21T20:18:12.145Z,51.18
2023-05-21T20:20:14.262Z,51.25
2023-05-21T20:22:15.934Z,51.00
2023-05-21T20:24:17.556Z,51.15
2023-05-21T20:26:19.394Z,51.18
2023-05-21T20:28:23.082Z,51.48
2023-05-21T20:30:31.979Z,51.23
2023-05-21T20:32:34.082Z,51.85
2023-05-21T20:34:36.015Z,51.51
2023-05-21T20:36:38.245Z,52.23
2023-05-21T20:38:39.851Z,52.16
2023-05-21T20:40:42.176Z,51.94
2023-05-21T20:42:43.799Z,52.44
2023-05-21T20:44:46.814Z,52.31
2023-05-21T20:46:48.636Z,52.54
2023-05-21T20:48:50.342Z,52.24
2023-05-21T20:50:52.179Z,52.75
2023-05-21T20:52:53.799Z,52.16
2023-05-21T20:54:55.707Z,52.51
2023-05-21T20:56:57.332Z,52.69
2023-05-21T20:58:58.988Z,52.98
2023-05-21T21:01:02.395Z,52.85
2023-05-21T21:03:04.331Z,53.08
2023-05-21T21:05:06.919Z,53.03
2023-05-21T21:07:08.769Z,52.66
2023-05-21T21:09:10.650Z,53.10
2023-05-21T21:11:12.917Z,53.31
2023-05-21T21:13:15.001Z,53.33
2023-05-21T21:15:16.619Z,53.23
2023-05-21T21:17:19.838Z,53.27
2023-05-21T21:19:21.573Z,53.34
2023-05-21T21:21:23.312Z,53.42
2023-05-21T21:23:25.474Z,53.15
2023-05-21T21:25:27.034Z,53.40
2023-05-21T21:27:28.862Z,53.03
2023-05-21T21:29:30.732Z,53.53
2023-05-21T21:31:32.373Z,54.04
2023-05-21T21:33:35.456Z,53.63
2023-05-21T21:35:39.798Z,53.77
2023-05-21T21:37:41.699Z,53.58
2023-05-21T21:39:43.539Z,53.83
2023-05-21T21:41:45.495Z,53.18
2023-05-21T21:43:47.159Z,53.15
2023-05-21T21:45:49.700Z,53.06
2023-05-21T21:47:51.355Z,53.52
2023-05-21T21:49:54.605Z,53.65
2023-05-21T21:51:56.500Z,53.67
2023-05-21T21:53:59.900Z,53.76
2023-05-21T21:56:01.785Z,53.64
2023-05-21T21:58:03.479Z,54.18
2023-05-21T22:00:06.189Z,54.24
2023-05-21T22:02:08.505Z,54.45
2023-05-21T22:04:10.125Z,54.79
2023-05-21T22:06:13.336Z,54.79
2023-05-21T22:08:15.006Z,55.16
2023-05-21T22:10:17.982Z,54.99
2023-05-21T22:12:19.655Z,55.37
2023-05-21T22:14:21.286Z,55.28
2023-05-21T22:16:23.020Z,55.79
2023-05-21T22:18:38.874Z,55.93
2023-05-21T22:20:41.878Z,56.57
2023-05-21T22:22:45.168Z,56.49
2023-05-21T22:24:46.842Z,56.20
2023-05-21T22:26:48.536Z,56.86
2023-05-21T22:28:50.708Z,56.73
2023-05-21T22:30:52.330Z,56.84
2023-05-21T22:32:54.236Z,57.38
2023-05-21T22:34:56.141Z,57.19
2023-05-21T22:36:57.993Z,57.29
2023-05-21T22:39:01.033Z,57.10
2023-05-21T22:41:02.868Z,57.56
2023-05-21T22:43:04.976Z,57.90
2023-05-21T22:45:08.108Z,57.76
2023-05-21T22:47:09.837Z,57.95
2023-05-21T22:49:11.533Z,57.82
2023-05-21T22:51:13.278Z,58.36
2023-05-21T22:53:15.047Z,57.92
2023-05-21T22:55:18.208Z,57.86
2023-05-21T22:57:20.583Z,58.30
2023-05-21T22:59:22.198Z,57.88
2023-05-21T23:01:24.286Z,58.86
2023-05-21T23:03:26.038Z,58.40
2023-05-21T23:05:27.905Z,58.83
2023-05-21T23:07:29.624Z,59.15
2023-05-21T23:09:31.281Z,59.54
2023-05-21T23:11:34.873Z,58.95
2023-05-21T23:13:38.879Z,59.41
2023-05-21T23:15:42.270Z,59.16
2023-05-21T23:17:44.166Z,59.60
2023-05-21T23:19:46.083Z,59.37
2023-05-21T23:21:47.921Z,59.37
2023-05-21T23:23:49.570Z,59.47
2023-05-21T23:25:51.220Z,59.26
2023-05-21T23:27:54.879Z,59.65
2023-05-21T23:29:56.721Z,59.47
2023-05-21T23:31:58.474Z,59.68
2023-05-21T23:34:00.813Z,60.63
2023-05-21T23:36:02.873Z,60.57
2023-05-21T23:38:04.544Z,60.77
2023-05-21T23:40:08.578Z,60.28
2023-05-21T23:42:10.478Z,59.68
2023-05-21T23:44:13.868Z,60.39
2023-05-21T23:46:16.149Z,60.54
2023-05-21T23:48:18.115Z,60.10
2023-05-21T23:50:20.182Z,60.78
2023-05-21T23:52:21.818Z,61.11
2023-05-21T23:54:23.631Z,61.57
2023-05-21T23:56:25.612Z,61.12
2023-05-21T23:58:27.490Z,61.64
